Rio Vista, California
Current Conditions -  °F | °C
As of 6:58 PM on Thursday 27 Nov 2014 (Local Time) from KSUU Reporting Station
Haze Haze  
Wind Chill: 47°   Ceiling: Unl
Heat Index: 47°   Visibility: 5mi
Dew Point: 47°   Wind: 0mph
Humidity: 100%   Direction: NA
Pressure: 30.05"   Gusts: NA
Location:  38.16°N, 121.69°W
Report Text: KSUU 280258Z AUTO 00000KT 5SM BR CLR 09/09 A3005 RMK AO2 VIS 2 1/2 RWY03R SLP183 60000 T00850085 56006 $
Loading
Personal Weather Stations






























Interactive Weather Map New forecast layout! Learn more

10-Day Weather Forecast

Advertisements
Track Severe Weather on mobile